Niotaze, Kansas
Current Conditions -  °F | °C
As of 8:55 PM on Friday 21 Nov 2014 (Local Time) from KIDP Reporting Station
Overcast Overcast  
Wind Chill: 52°   Ceiling: 700
Heat Index: 52°   Visibility: 7mi
Dew Point: 50°   Wind: 14mph
Humidity: 94%   Direction: 170°S
Pressure: 30.08"   Gusts: NA
Location:  37.07°N, 96.01°W
Report Text: KIDP 220255Z AUTO 17012KT 7SM OVC007 11/10 A3008 RMK AO2
Loading
Personal Weather Stations






























Interactive Weather Map New forecast layout! Learn more

10-Day Weather Forecast

Advertisements
Track Severe Weather on mobile